createdAt,value
2019-03-26T00:01:03.021Z,6.03
2019-03-26T00:03:34.891Z,6.53
2019-03-26T00:06:22.628Z,6.63
2019-03-26T00:08:52.407Z,5.77
2019-03-26T00:11:22.867Z,6.60
2019-03-26T00:13:51.519Z,6.13
2019-03-26T00:16:20.171Z,6.87
2019-03-26T00:18:49.137Z,6.40
2019-03-26T00:21:17.858Z,7.30
2019-03-26T00:23:46.428Z,7.23
2019-03-26T00:26:15.410Z,6.77
2019-03-26T00:28:44.073Z,6.90
2019-03-26T00:31:13.074Z,9.17
2019-03-26T00:33:47.147Z,7.70
2019-03-26T00:36:18.684Z,6.93
2019-03-26T00:38:47.357Z,7.50
2019-03-26T00:41:16.167Z,7.20
2019-03-26T00:43:46.035Z,7.73
2019-03-26T00:46:15.728Z,7.33
2019-03-26T00:48:44.358Z,7.20
2019-03-26T00:51:14.824Z,7.43
2019-03-26T00:53:43.379Z,7.47
2019-03-26T00:56:11.996Z,6.53
2019-03-26T00:58:40.721Z,7.03
2019-03-26T01:01:09.300Z,7.40
2019-03-26T01:03:37.856Z,7.63
2019-03-26T01:06:07.206Z,6.97
2019-03-26T01:08:36.243Z,6.97
2019-03-26T01:11:05.133Z,7.40
2019-03-26T01:13:34.490Z,7.40
2019-03-26T01:16:04.654Z,7.07
2019-03-26T01:18:33.234Z,7.33
2019-03-26T01:21:02.110Z,7.70
2019-03-26T01:23:30.655Z,7.67
2019-03-26T01:25:59.299Z,8.37
2019-03-26T01:28:27.874Z,7.73
2019-03-26T01:30:56.492Z,8.73
2019-03-26T01:33:25.079Z,8.80
2019-03-26T01:35:53.732Z,8.77
2019-03-26T01:38:22.284Z,9.53
2019-03-26T01:40:51.124Z,9.13
2019-03-26T01:43:19.818Z,8.93
2019-03-26T01:45:50.651Z,9.67
2019-03-26T01:48:19.298Z,9.57
2019-03-26T01:50:48.856Z,10.23
2019-03-26T01:53:20.188Z,10.70
2019-03-26T01:55:47.691Z,9.30
2019-03-26T01:58:16.382Z,8.93
2019-03-26T02:00:45.157Z,10.30
2019-03-26T02:03:13.799Z,9.43
2019-03-26T02:06:01.724Z,9.23
2019-03-26T02:08:30.283Z,8.67
2019-03-26T02:10:59.019Z,9.60
2019-03-26T02:13:27.659Z,9.53
2019-03-26T02:15:56.221Z,10.40
2019-03-26T02:18:24.781Z,9.97
2019-03-26T02:20:53.445Z,10.03
2019-03-26T02:23:22.133Z,9.53
2019-03-26T02:25:50.709Z,10.03
2019-03-26T02:28:19.432Z,9.67
2019-03-26T02:30:48.016Z,8.97
2019-03-26T02:33:16.561Z,9.43
2019-03-26T02:35:45.155Z,10.37
2019-03-26T02:38:13.855Z,9.70
2019-03-26T02:40:42.751Z,9.77
2019-03-26T02:43:11.490Z,9.83
2019-03-26T02:45:40.116Z,10.10
2019-03-26T02:48:09.056Z,10.77
2019-03-26T02:50:37.708Z,10.57
2019-03-26T02:53:08.769Z,9.13
2019-03-26T02:55:36.613Z,9.57
2019-03-26T02:58:05.266Z,9.30
2019-03-26T03:00:34.030Z,9.67
2019-03-26T03:03:02.594Z,10.30
2019-03-26T03:05:35.755Z,9.87
2019-03-26T03:08:01.539Z,9.27
2019-03-26T03:10:32.859Z,9.37
2019-03-26T03:13:01.448Z,9.30
2019-03-26T03:15:30.007Z,9.63
2019-03-26T03:17:58.642Z,9.07
2019-03-26T03:20:27.307Z,10.37
2019-03-26T03:22:55.930Z,9.17
2019-03-26T03:25:24.551Z,9.27
2019-03-26T03:27:53.217Z,10.90
2019-03-26T03:30:21.917Z,9.17
2019-03-26T03:32:50.483Z,8.97
2019-03-26T03:35:19.155Z,9.10
2019-03-26T03:37:47.848Z,9.03
2019-03-26T03:40:16.552Z,8.80
2019-03-26T03:42:45.225Z,9.87
2019-03-26T03:45:15.587Z,8.93
2019-03-26T03:47:44.276Z,8.60
2019-03-26T03:50:13.210Z,9.10
2019-03-26T03:52:41.907Z,8.43
2019-03-26T03:55:10.925Z,8.43
2019-03-26T03:57:39.728Z,8.23
2019-03-26T04:00:11.223Z,9.70
2019-03-26T04:02:39.830Z,7.97
2019-03-26T04:05:08.683Z,7.07
2019-03-26T04:07:37.293Z,7.67
2019-03-26T04:10:06.899Z,6.13
2019-03-26T04:12:35.561Z,6.03
2019-03-26T04:15:08.084Z,5.93
2019-03-26T04:17:36.711Z,5.73
2019-03-26T04:20:05.855Z,6.13
2019-03-26T04:22:34.390Z,5.00
2019-03-26T04:25:03.082Z,5.20
2019-03-26T04:27:31.666Z,4.83
2019-03-26T04:30:00.401Z,5.17
2019-03-26T04:32:29.306Z,5.10
2019-03-26T04:34:58.038Z,4.60
2019-03-26T04:37:26.591Z,4.53
2019-03-26T04:40:14.526Z,4.40
2019-03-26T04:42:43.161Z,4.20
2019-03-26T04:45:11.874Z,3.93
2019-03-26T04:47:40.545Z,3.80
2019-03-26T04:50:09.253Z,4.03
2019-03-26T04:52:37.950Z,4.47
2019-03-26T04:55:06.802Z,3.60
2019-03-26T04:57:35.443Z,4.17
2019-03-26T05:00:05.864Z,2.97
2019-03-26T05:02:34.600Z,3.13
2019-03-26T05:05:03.478Z,3.40
2019-03-26T05:07:32.053Z,3.30
2019-03-26T05:10:00.690Z,3.00
2019-03-26T05:12:29.393Z,3.00
2019-03-26T05:14:58.175Z,2.83
2019-03-26T05:17:26.851Z,2.63
2019-03-26T05:19:55.460Z,2.17
2019-03-26T05:22:24.608Z,4.97
2019-03-26T05:24:53.364Z,2.47
2019-03-26T05:27:22.101Z,2.70
2019-03-26T05:29:51.007Z,2.40
2019-03-26T05:32:19.681Z,2.20
2019-03-26T05:34:48.251Z,2.47
2019-03-26T05:37:16.952Z,2.47
2019-03-26T05:39:45.828Z,2.47
2019-03-26T05:42:14.541Z,2.13
2019-03-26T05:44:43.247Z,2.63
2019-03-26T05:47:15.757Z,2.10
2019-03-26T05:49:44.394Z,2.27
2019-03-26T05:52:13.095Z,1.97
2019-03-26T05:54:42.042Z,2.47
2019-03-26T05:57:10.677Z,2.50
2019-03-26T05:59:39.309Z,2.30
2019-03-26T06:02:14.193Z,2.43
2019-03-26T06:04:38.330Z,3.10
2019-03-26T06:07:08.181Z,2.20
2019-03-26T06:09:36.742Z,2.27
2019-03-26T06:12:05.599Z,2.20
2019-03-26T06:14:34.156Z,2.60
2019-03-26T06:17:03.861Z,2.57
2019-03-26T06:19:32.415Z,2.30
2019-03-26T06:22:01.069Z,1.97
2019-03-26T06:24:29.886Z,2.70
2019-03-26T06:26:58.999Z,2.53
2019-03-26T06:29:27.829Z,2.43
2019-03-26T06:31:57.317Z,2.77
2019-03-26T06:34:25.914Z,2.87
2019-03-26T06:36:54.906Z,2.77
2019-03-26T06:39:23.644Z,2.43
2019-03-26T06:41:52.280Z,3.27
2019-03-26T06:44:20.848Z,3.67
2019-03-26T06:46:49.609Z,3.73
2019-03-26T06:49:18.321Z,3.17
2019-03-26T06:51:46.944Z,2.80
2019-03-26T06:54:15.841Z,3.53
2019-03-26T06:56:46.909Z,2.63
2019-03-26T06:59:16.832Z,2.60
2019-03-26T07:01:45.572Z,3.20
2019-03-26T07:04:17.122Z,2.87
2019-03-26T07:06:45.824Z,3.03
2019-03-26T07:09:14.565Z,2.87
2019-03-26T07:11:43.409Z,3.17
2019-03-26T07:14:12.050Z,3.87
2019-03-26T07:16:40.776Z,2.93
2019-03-26T07:19:09.670Z,2.93
2019-03-26T07:21:49.599Z,3.10
2019-03-26T07:24:11.184Z,2.73
2019-03-26T07:26:39.977Z,3.37
2019-03-26T07:29:08.543Z,3.03
2019-03-26T07:31:37.328Z,3.00
2019-03-26T07:34:07.280Z,3.00
2019-03-26T07:36:36.268Z,2.60
2019-03-26T07:39:05.930Z,2.70
2019-03-26T07:41:34.641Z,2.80
2019-03-26T07:44:03.492Z,2.50
2019-03-26T07:46:32.367Z,2.90
2019-03-26T07:49:05.194Z,2.67
2019-03-26T07:51:34.096Z,2.93
2019-03-26T07:54:03.640Z,2.60
2019-03-26T07:56:35.277Z,3.50
2019-03-26T07:59:05.626Z,2.93
2019-03-26T08:01:34.372Z,2.10
2019-03-26T08:04:03.075Z,2.67
2019-03-26T08:06:34.748Z,2.30
2019-03-26T08:09:04.567Z,2.83
2019-03-26T08:11:33.284Z,2.07
2019-03-26T08:14:02.125Z,2.40
2019-03-26T08:16:32.505Z,2.20
2019-03-26T08:19:01.143Z,2.53
2019-03-26T08:21:30.347Z,2.33
2019-03-26T08:23:59.300Z,2.67
2019-03-26T08:26:33.913Z,2.17
2019-03-26T08:29:02.566Z,2.03
2019-03-26T08:31:31.299Z,2.80
2019-03-26T08:34:01.207Z,3.37
2019-03-26T08:36:29.831Z,2.50
2019-03-26T08:38:58.755Z,2.37
2019-03-26T08:41:29.954Z,1.50
2019-03-26T08:44:04.868Z,2.83
2019-03-26T08:46:33.503Z,2.50
2019-03-26T08:49:04.617Z,2.20
2019-03-26T08:51:33.294Z,1.83
2019-03-26T08:54:02.139Z,2.00
2019-03-26T08:56:30.880Z,1.80
2019-03-26T08:58:59.564Z,2.90
2019-03-26T09:01:28.267Z,2.60
2019-03-26T09:03:58.289Z,2.60
2019-03-26T09:06:27.327Z,2.90
2019-03-26T09:08:56.297Z,2.30
2019-03-26T09:11:24.938Z,2.50
2019-03-26T09:13:53.625Z,2.70
2019-03-26T09:16:22.405Z,2.93
2019-03-26T09:18:54.028Z,3.70
2019-03-26T09:21:22.889Z,2.40
2019-03-26T09:23:51.794Z,2.33
2019-03-26T09:26:20.515Z,2.27
2019-03-26T09:28:49.244Z,2.10
2019-03-26T09:31:17.889Z,2.20
2019-03-26T09:33:46.617Z,2.43
2019-03-26T09:36:15.371Z,1.90
2019-03-26T09:38:47.223Z,2.10
2019-03-26T09:41:15.950Z,2.07
2019-03-26T09:43:44.625Z,2.00
2019-03-26T09:46:13.389Z,2.13
2019-03-26T09:48:42.055Z,2.40
2019-03-26T09:51:13.731Z,2.50
2019-03-26T09:53:42.378Z,2.17
2019-03-26T09:56:11.185Z,2.10
2019-03-26T09:58:41.797Z,2.23
2019-03-26T10:01:13.348Z,2.13
2019-03-26T10:03:42.257Z,2.47
2019-03-26T10:06:22.856Z,2.40
2019-03-26T10:08:51.797Z,2.00
2019-03-26T10:11:12.006Z,2.23
2019-03-26T10:13:42.407Z,2.40
2019-03-26T10:16:11.251Z,2.27
2019-03-26T10:18:40.155Z,2.13
2019-03-26T10:21:11.557Z,1.90
2019-03-26T10:23:41.290Z,2.40
2019-03-26T10:26:09.945Z,1.70
2019-03-26T10:28:41.421Z,2.00
2019-03-26T10:31:10.277Z,2.63
2019-03-26T10:33:43.184Z,1.80
2019-03-26T10:36:11.933Z,3.20
2019-03-26T10:38:41.669Z,2.23
2019-03-26T10:41:10.355Z,1.83
2019-03-26T10:43:43.739Z,2.90
2019-03-26T10:46:12.447Z,2.10
2019-03-26T10:48:45.408Z,2.17
2019-03-26T10:51:14.367Z,2.40
2019-03-26T10:53:47.848Z,2.97
2019-03-26T10:56:21.278Z,2.40
2019-03-26T10:58:50.031Z,2.53
2019-03-26T11:01:21.791Z,1.93
2019-03-26T11:03:53.717Z,2.93
2019-03-26T11:06:29.849Z,2.97
2019-03-26T11:08:58.874Z,1.83
2019-03-26T11:11:27.903Z,2.10
2019-03-26T11:13:58.775Z,2.70
2019-03-26T11:16:27.187Z,2.73
2019-03-26T11:19:00.161Z,2.20
2019-03-26T11:21:28.869Z,2.37
2019-03-26T11:23:57.510Z,2.07
2019-03-26T11:26:26.440Z,2.27
2019-03-26T11:28:55.431Z,2.17
2019-03-26T11:31:24.232Z,2.70
2019-03-26T11:33:52.968Z,2.07
2019-03-26T11:36:21.683Z,2.30
2019-03-26T11:38:52.854Z,2.10
2019-03-26T11:41:23.837Z,2.03
2019-03-26T11:43:52.998Z,1.70
2019-03-26T11:46:22.842Z,2.13
2019-03-26T11:48:53.656Z,1.80
2019-03-26T11:51:22.416Z,2.90
2019-03-26T11:53:52.510Z,1.70
2019-03-26T11:56:21.439Z,2.30
2019-03-26T11:58:50.275Z,2.20
2019-03-26T12:01:19.254Z,2.00
2019-03-26T12:03:51.813Z,2.33
2019-03-26T12:06:20.535Z,2.40
2019-03-26T12:08:49.398Z,1.87
2019-03-26T12:11:18.157Z,3.40
2019-03-26T12:13:46.805Z,2.27
2019-03-26T12:16:15.517Z,2.40
2019-03-26T12:18:47.812Z,2.10
2019-03-26T12:21:16.636Z,3.33
2019-03-26T12:23:48.654Z,3.20
2019-03-26T12:26:18.866Z,2.17
2019-03-26T12:28:49.790Z,2.17
2019-03-26T12:31:18.713Z,2.67
2019-03-26T12:33:47.444Z,2.13
2019-03-26T12:36:19.247Z,2.07
2019-03-26T12:38:53.525Z,2.83
2019-03-26T12:41:22.237Z,2.90
2019-03-26T12:43:50.949Z,1.97
2019-03-26T12:46:19.680Z,2.00
2019-03-26T12:48:50.742Z,2.57
2019-03-26T12:51:20.930Z,2.33
2019-03-26T12:53:50.639Z,3.10
2019-03-26T12:56:25.789Z,2.40
2019-03-26T12:58:54.527Z,3.10
2019-03-26T13:01:23.670Z,2.77
2019-03-26T13:03:55.243Z,2.60
2019-03-26T13:06:24.285Z,2.70
2019-03-26T13:08:54.928Z,2.10
2019-03-26T13:11:27.939Z,2.77
2019-03-26T13:13:59.429Z,2.33
2019-03-26T13:16:29.609Z,3.70
2019-03-26T13:19:02.653Z,2.30
2019-03-26T13:21:31.385Z,2.20
2019-03-26T13:24:00.256Z,2.10
2019-03-26T13:26:31.667Z,2.07
2019-03-26T13:29:02.008Z,2.17
2019-03-26T13:31:30.709Z,2.00
2019-03-26T13:34:05.429Z,3.47
2019-03-26T13:36:36.320Z,2.93
2019-03-26T13:39:07.500Z,2.47
2019-03-26T13:41:36.548Z,1.97
2019-03-26T13:44:05.491Z,2.53
2019-03-26T13:46:34.215Z,2.27
2019-03-26T13:49:02.905Z,1.90
2019-03-26T13:51:37.152Z,2.93
2019-03-26T13:54:05.368Z,2.10
2019-03-26T13:56:35.836Z,2.20
2019-03-26T13:59:04.590Z,2.07
2019-03-26T14:01:33.295Z,2.47
2019-03-26T14:04:02.028Z,2.13
2019-03-26T14:06:32.891Z,2.10
2019-03-26T14:09:01.634Z,2.00
2019-03-26T14:11:30.317Z,1.90
2019-03-26T14:14:00.529Z,2.70
2019-03-26T14:16:32.282Z,1.87
2019-03-26T14:19:00.950Z,2.17
2019-03-26T14:21:29.609Z,2.07
2019-03-26T14:24:00.767Z,2.30
2019-03-26T14:26:29.464Z,2.13
2019-03-26T14:28:58.056Z,1.90
2019-03-26T14:31:26.684Z,1.73
2019-03-26T14:33:55.411Z,1.80
2019-03-26T14:36:28.430Z,1.47
2019-03-26T14:38:57.077Z,1.80
2019-03-26T14:41:27.264Z,1.70
2019-03-26T14:43:56.126Z,1.97
2019-03-26T14:46:25.356Z,1.70
2019-03-26T14:48:55.858Z,2.13
2019-03-26T14:51:25.544Z,1.77
2019-03-26T14:53:54.671Z,2.43
2019-03-26T14:56:23.585Z,2.10
2019-03-26T14:58:59.086Z,2.00
2019-03-26T15:01:27.770Z,2.00
2019-03-26T15:03:56.598Z,4.93
2019-03-26T15:06:25.785Z,3.60
2019-03-26T15:08:55.864Z,5.70
2019-03-26T15:11:24.492Z,5.00
2019-03-26T15:13:53.243Z,3.13
2019-03-26T15:16:25.244Z,2.27
2019-03-26T15:18:54.143Z,2.23
2019-03-26T15:21:24.389Z,2.00
2019-03-26T15:23:58.775Z,2.33
2019-03-26T15:26:27.722Z,2.37
2019-03-26T15:28:56.463Z,2.30
2019-03-26T15:31:25.161Z,2.27
2019-03-26T15:34:00.400Z,2.03
2019-03-26T15:36:30.578Z,2.47
2019-03-26T15:39:00.851Z,2.43
2019-03-26T15:41:31.176Z,2.20
2019-03-26T15:44:02.835Z,2.30
2019-03-26T15:46:36.316Z,2.50
2019-03-26T15:49:09.434Z,2.53
2019-03-26T15:51:42.616Z,3.13
2019-03-26T15:54:11.511Z,2.70
2019-03-26T15:56:42.252Z,2.30
2019-03-26T15:59:11.596Z,2.83
2019-03-26T16:01:47.854Z,1.93
2019-03-26T16:04:23.751Z,2.13
2019-03-26T16:06:52.410Z,2.90
2019-03-26T16:09:21.215Z,2.20
2019-03-26T16:11:52.658Z,2.03
2019-03-26T16:14:21.307Z,1.83
2019-03-26T16:16:49.867Z,1.90
2019-03-26T16:19:31.882Z,2.23
2019-03-26T16:21:48.978Z,1.80
2019-03-26T16:24:17.761Z,2.13
2019-03-26T16:26:46.697Z,1.70
2019-03-26T16:29:20.239Z,2.10
2019-03-26T16:31:49.671Z,2.60
2019-03-26T16:34:19.848Z,2.00
2019-03-26T16:36:59.274Z,1.67
2019-03-26T16:39:21.753Z,1.70
2019-03-26T16:41:53.909Z,2.20
2019-03-26T16:44:22.572Z,1.83
2019-03-26T16:46:51.590Z,2.17
2019-03-26T16:49:23.508Z,2.27
2019-03-26T16:51:52.130Z,2.40
2019-03-26T16:54:25.295Z,2.13
2019-03-26T16:57:01.281Z,2.00
2019-03-26T16:59:29.901Z,2.13
2019-03-26T17:02:01.210Z,1.90
2019-03-26T17:04:31.174Z,1.87
2019-03-26T17:07:03.621Z,1.93
2019-03-26T17:09:32.604Z,2.03
2019-03-26T17:12:03.622Z,2.10
2019-03-26T17:14:32.982Z,2.40
2019-03-26T17:17:03.330Z,2.40
2019-03-26T17:19:32.659Z,2.33
2019-03-26T17:22:04.430Z,2.40
2019-03-26T17:24:43.916Z,2.37
2019-03-26T17:27:12.651Z,2.30
2019-03-26T17:29:43.904Z,2.93
2019-03-26T17:32:13.278Z,2.30
2019-03-26T17:34:42.186Z,2.60
2019-03-26T17:37:30.218Z,3.20
2019-03-26T17:40:02.248Z,2.77
2019-03-26T17:42:33.639Z,2.37
2019-03-26T17:45:02.375Z,3.07
2019-03-26T17:47:31.202Z,3.43
2019-03-26T17:49:59.930Z,2.90
2019-03-26T17:52:30.194Z,2.73
2019-03-26T17:55:00.608Z,2.60
2019-03-26T17:57:32.084Z,2.50
2019-03-26T18:00:01.533Z,3.53
2019-03-26T18:02:34.686Z,3.17
2019-03-26T18:05:10.086Z,2.57
2019-03-26T18:07:41.842Z,2.73
2019-03-26T18:10:11.924Z,3.00
2019-03-26T18:12:46.803Z,2.40
2019-03-26T18:15:28.438Z,2.40
2019-03-26T18:18:00.923Z,2.53
2019-03-26T18:20:32.756Z,3.03
2019-03-26T18:23:00.230Z,2.57
2019-03-26T18:25:31.930Z,2.80
2019-03-26T18:28:02.404Z,2.57
2019-03-26T18:30:34.594Z,2.73
2019-03-26T18:33:03.284Z,2.60
2019-03-26T18:35:34.047Z,3.03
2019-03-26T18:38:08.482Z,2.40
2019-03-26T18:40:44.626Z,2.43
2019-03-26T18:43:21.030Z,2.60
2019-03-26T18:46:02.599Z,2.90
2019-03-26T18:48:37.470Z,3.37
2019-03-26T18:51:09.654Z,3.27
2019-03-26T18:53:44.263Z,3.53
2019-03-26T18:56:12.907Z,3.40
2019-03-26T18:58:51.252Z,4.10
2019-03-26T19:01:19.901Z,3.77
2019-03-26T19:03:49.043Z,3.80
2019-03-26T19:06:17.709Z,3.50
2019-03-26T19:08:49.424Z,3.40
2019-03-26T19:11:19.594Z,3.30
2019-03-26T19:13:56.163Z,3.63
2019-03-26T19:16:29.407Z,3.70
2019-03-26T19:19:01.270Z,3.77
2019-03-26T19:21:36.290Z,3.70
2019-03-26T19:24:12.276Z,3.83
2019-03-26T19:26:45.865Z,3.93
2019-03-26T19:29:19.921Z,3.77
2019-03-26T19:31:51.083Z,3.50
2019-03-26T19:34:20.945Z,3.50
2019-03-26T19:36:52.373Z,3.37
2019-03-26T19:39:27.462Z,3.43
2019-03-26T19:41:59.337Z,4.13
2019-03-26T19:44:28.488Z,3.90
2019-03-26T19:47:01.370Z,4.20
2019-03-26T19:49:34.838Z,3.93
2019-03-26T19:52:21.124Z,3.97
2019-03-26T19:54:50.506Z,4.63
2019-03-26T19:57:19.493Z,4.23
2019-03-26T19:59:56.726Z,3.80
2019-03-26T20:02:28.383Z,4.23
2019-03-26T20:05:00.487Z,4.10
2019-03-26T20:07:29.923Z,4.40
2019-03-26T20:09:59.852Z,4.43
2019-03-26T20:12:30.400Z,4.37
2019-03-26T20:15:00.604Z,4.20
2019-03-26T20:17:31.174Z,4.23
2019-03-26T20:20:04.654Z,4.80
2019-03-26T20:22:34.981Z,5.00
2019-03-26T20:25:05.740Z,5.20
2019-03-26T20:27:34.483Z,4.70
2019-03-26T20:30:04.740Z,4.90
2019-03-26T20:32:36.388Z,6.00
2019-03-26T20:35:17.230Z,5.53
2019-03-26T20:37:47.008Z,5.00
2019-03-26T20:40:23.290Z,6.10
2019-03-26T20:42:54.266Z,5.37
2019-03-26T20:45:26.106Z,4.93
2019-03-26T20:48:17.668Z,6.10
2019-03-26T20:50:49.270Z,4.87
2019-03-26T20:53:18.109Z,5.33
2019-03-26T20:56:06.288Z,5.90
2019-03-26T20:58:40.118Z,5.33
2019-03-26T21:01:08.927Z,5.00
2019-03-26T21:03:42.346Z,5.23
2019-03-26T21:06:11.262Z,5.53
2019-03-26T21:08:41.880Z,5.23
2019-03-26T21:11:11.334Z,6.13
2019-03-26T21:13:50.634Z,5.20
2019-03-26T21:16:15.221Z,5.77
2019-03-26T21:19:09.059Z,4.80
2019-03-26T21:21:37.012Z,5.93
2019-03-26T21:24:05.728Z,5.00
2019-03-26T21:26:40.255Z,4.97
2019-03-26T21:29:10.930Z,5.67
2019-03-26T21:31:43.099Z,5.33
2019-03-26T21:34:12.853Z,5.07
2019-03-26T21:36:46.642Z,5.20
2019-03-26T21:39:16.127Z,4.70
2019-03-26T21:41:49.992Z,4.77
2019-03-26T21:44:18.973Z,4.70
2019-03-26T21:46:54.356Z,5.27
2019-03-26T21:49:24.317Z,4.80
2019-03-26T21:51:53.425Z,4.60
2019-03-26T21:54:25.315Z,4.57
2019-03-26T21:56:54.337Z,4.53
2019-03-26T21:59:24.830Z,4.30
2019-03-26T22:01:56.290Z,5.00
2019-03-26T22:04:25.094Z,4.83
2019-03-26T22:06:55.275Z,5.27
2019-03-26T22:09:23.903Z,4.70
2019-03-26T22:11:52.649Z,3.77
2019-03-26T22:14:21.380Z,4.00
2019-03-26T22:16:50.978Z,4.97
2019-03-26T22:19:28.535Z,4.40
2019-03-26T22:21:53.315Z,4.87
2019-03-26T22:24:24.883Z,4.20
2019-03-26T22:26:53.675Z,4.40
2019-03-26T22:29:22.318Z,4.63
2019-03-26T22:31:52.041Z,4.37
2019-03-26T22:34:20.753Z,4.37
2019-03-26T22:36:55.683Z,4.30
2019-03-26T22:39:24.255Z,4.77
2019-03-26T22:41:52.957Z,5.20
2019-03-26T22:44:31.438Z,4.73
2019-03-26T22:46:53.736Z,4.70
2019-03-26T22:49:22.761Z,5.00
2019-03-26T22:51:51.439Z,4.43
2019-03-26T22:54:24.625Z,4.77
2019-03-26T22:56:53.288Z,5.00
2019-03-26T22:59:22.337Z,4.77
2019-03-26T23:01:51.125Z,4.90
2019-03-26T23:04:20.248Z,6.87
2019-03-26T23:06:49.176Z,4.87
2019-03-26T23:09:17.884Z,4.80
2019-03-26T23:11:46.664Z,5.17
2019-03-26T23:14:16.962Z,4.80
2019-03-26T23:16:48.634Z,5.20
2019-03-26T23:19:19.623Z,5.80
2019-03-26T23:21:48.300Z,4.90
2019-03-26T23:24:17.073Z,5.87
2019-03-26T23:26:45.704Z,4.97
2019-03-26T23:29:14.372Z,5.43
2019-03-26T23:31:47.613Z,5.33
2019-03-26T23:34:16.312Z,5.83
2019-03-26T23:36:46.713Z,6.40
2019-03-26T23:39:22.901Z,5.87
2019-03-26T23:41:54.754Z,5.80
2019-03-26T23:44:26.170Z,5.50
2019-03-26T23:46:53.914Z,5.27
2019-03-26T23:49:22.980Z,5.80
2019-03-26T23:51:54.762Z,4.90
2019-03-26T23:54:23.617Z,5.53
2019-03-26T23:56:52.287Z,5.73
2019-03-26T23:59:20.926Z,5.97
